sensor_id;sensor_type;location;lat;lon;timestamp;pressure;altitude;pressure_sealevel;temperature;humidity
77881;BME280;67077;50.298;18.996;2023-06-24T00:01:30;98100.98;;;19.13;66.11
77881;BME280;67077;50.298;18.996;2023-06-24T00:03:57;98101.36;;;19.13;66.25
77881;BME280;67077;50.298;18.996;2023-06-24T00:06:24;98098.46;;;19.11;66.39
77881;BME280;67077;50.298;18.996;2023-06-24T00:08:52;98094.69;;;19.08;66.38
77881;BME280;67077;50.298;18.996;2023-06-24T00:11:28;98096.94;;;19.06;66.61
77881;BME280;67077;50.298;18.996;2023-06-24T00:13:55;98098.80;;;19.06;66.88
77881;BME280;67077;50.298;18.996;2023-06-24T00:16:22;98096.34;;;19.06;66.77
77881;BME280;67077;50.298;18.996;2023-06-24T00:18:56;98092.34;;;19.08;66.61
77881;BME280;67077;50.298;18.996;2023-06-24T00:21:27;98091.67;;;19.08;66.86
77881;BME280;67077;50.298;18.996;2023-06-24T00:23:58;98093.60;;;19.06;66.97
77881;BME280;67077;50.298;18.996;2023-06-24T00:26:25;98090.04;;;19.05;67.05
77881;BME280;67077;50.298;18.996;2023-06-24T00:28:52;98091.73;;;19.02;67.05
77881;BME280;67077;50.298;18.996;2023-06-24T00:31:19;98086.48;;;19.02;67.13
77881;BME280;67077;50.298;18.996;2023-06-24T00:33:46;98083.73;;;19.04;67.04
77881;BME280;67077;50.298;18.996;2023-06-24T00:36:13;98085.66;;;19.05;67.03
77881;BME280;67077;50.298;18.996;2023-06-24T00:38:39;98084.11;;;19.04;67.01
77881;BME280;67077;50.298;18.996;2023-06-24T00:41:07;98082.92;;;19.01;67.26
77881;BME280;67077;50.298;18.996;2023-06-24T00:43:33;98073.64;;;18.95;67.25
77881;BME280;67077;50.298;18.996;2023-06-24T00:46:00;98072.72;;;18.90;67.63
77881;BME280;67077;50.298;18.996;2023-06-24T00:48:27;98073.76;;;18.87;67.73
77881;BME280;67077;50.298;18.996;2023-06-24T00:50:53;98073.33;;;18.86;67.84
77881;BME280;67077;50.298;18.996;2023-06-24T00:53:20;98076.89;;;18.86;67.91
77881;BME280;67077;50.298;18.996;2023-06-24T00:55:52;98076.27;;;18.82;68.10
77881;BME280;67077;50.298;18.996;2023-06-24T00:58:20;98079.16;;;18.78;68.19
77881;BME280;67077;50.298;18.996;2023-06-24T01:00:49;98085.63;;;18.75;68.36
77881;BME280;67077;50.298;18.996;2023-06-24T01:03:24;98093.30;;;18.73;68.54
77881;BME280;67077;50.298;18.996;2023-06-24T01:05:53;98092.31;;;18.74;68.53
77881;BME280;67077;50.298;18.996;2023-06-24T01:08:20;98096.91;;;18.74;68.57
77881;BME280;67077;50.298;18.996;2023-06-24T01:10:50;98095.81;;;18.73;68.54
77881;BME280;67077;50.298;18.996;2023-06-24T01:13:20;98098.83;;;18.73;68.65
77881;BME280;67077;50.298;18.996;2023-06-24T01:15:47;98096.41;;;18.71;68.94
77881;BME280;67077;50.298;18.996;2023-06-24T01:18:35;98095.93;;;18.71;68.95
77881;BME280;67077;50.298;18.996;2023-06-24T01:21:14;98097.63;;;18.72;68.95
77881;BME280;67077;50.298;18.996;2023-06-24T01:32:23;98108.33;;;18.67;69.15
77881;BME280;67077;50.298;18.996;2023-06-24T01:34:58;98106.75;;;18.69;69.26
77881;BME280;67077;50.298;18.996;2023-06-24T01:37:37;98108.80;;;18.71;69.13
77881;BME280;67077;50.298;18.996;2023-06-24T01:42:39;98113.99;;;18.72;69.30
77881;BME280;67077;50.298;18.996;2023-06-24T01:45:12;98116.73;;;18.71;69.26
77881;BME280;67077;50.298;18.996;2023-06-24T01:47:44;98115.34;;;18.68;69.44
77881;BME280;67077;50.298;18.996;2023-06-24T01:50:13;98117.23;;;18.64;69.58
77881;BME280;67077;50.298;18.996;2023-06-24T01:52:44;98113.05;;;18.62;69.67
77881;BME280;67077;50.298;18.996;2023-06-24T01:55:17;98110.05;;;18.62;69.94
77881;BME280;67077;50.298;18.996;2023-06-24T01:57:46;98109.94;;;18.62;70.01
77881;BME280;67077;50.298;18.996;2023-06-24T02:00:16;98112.67;;;18.61;70.27
77881;BME280;67077;50.298;18.996;2023-06-24T02:02:45;98110.42;;;18.57;70.39
77881;BME280;67077;50.298;18.996;2023-06-24T02:05:14;98112.09;;;18.52;70.46
77881;BME280;67077;50.298;18.996;2023-06-24T02:07:44;98111.16;;;18.48;70.67
77881;BME280;67077;50.298;18.996;2023-06-24T02:10:12;98107.16;;;18.47;70.76
77881;BME280;67077;50.298;18.996;2023-06-24T02:12:39;98108.26;;;18.47;71.02
77881;BME280;67077;50.298;18.996;2023-06-24T02:15:07;98103.55;;;18.48;71.12
77881;BME280;67077;50.298;18.996;2023-06-24T02:17:37;98100.92;;;18.47;71.23
77881;BME280;67077;50.298;18.996;2023-06-24T02:20:07;98097.58;;;18.46;71.44
77881;BME280;67077;50.298;18.996;2023-06-24T02:22:38;98100.91;;;18.43;71.46
77881;BME280;67077;50.298;18.996;2023-06-24T02:25:07;98100.98;;;18.45;71.51
77881;BME280;67077;50.298;18.996;2023-06-24T02:27:35;98102.23;;;18.47;71.55
77881;BME280;67077;50.298;18.996;2023-06-24T02:30:06;98102.57;;;18.49;71.52
77881;BME280;67077;50.298;18.996;2023-06-24T02:32:34;98105.13;;;18.49;71.62
77881;BME280;67077;50.298;18.996;2023-06-24T02:35:05;98106.56;;;18.47;71.84
77881;BME280;67077;50.298;18.996;2023-06-24T02:37:32;98107.81;;;18.47;71.82
77881;BME280;67077;50.298;18.996;2023-06-24T02:39:59;98110.06;;;18.47;71.91
77881;BME280;67077;50.298;18.996;2023-06-24T02:42:26;98111.92;;;18.47;72.24
77881;BME280;67077;50.298;18.996;2023-06-24T02:44:53;98114.44;;;18.45;72.37
77881;BME280;67077;50.298;18.996;2023-06-24T02:47:22;98113.35;;;18.43;72.47
77881;BME280;67077;50.298;18.996;2023-06-24T02:49:50;98110.77;;;18.41;72.64
77881;BME280;67077;50.298;18.996;2023-06-24T02:52:18;98117.94;;;18.40;72.89
77881;BME280;67077;50.298;18.996;2023-06-24T02:54:44;98119.64;;;18.41;72.99
77881;BME280;67077;50.298;18.996;2023-06-24T02:57:11;98119.75;;;18.42;72.89
77881;BME280;67077;50.298;18.996;2023-06-24T02:59:42;98118.70;;;18.44;73.02
77881;BME280;67077;50.298;18.996;2023-06-24T03:02:08;98116.40;;;18.43;73.34
77881;BME280;67077;50.298;18.996;2023-06-24T03:04:35;98114.59;;;18.40;73.57
77881;BME280;67077;50.298;18.996;2023-06-24T03:07:05;98115.27;;;18.37;74.01
77881;BME280;67077;50.298;18.996;2023-06-24T03:09:34;98117.91;;;18.37;74.08
77881;BME280;67077;50.298;18.996;2023-06-24T03:12:01;98121.38;;;18.38;74.23
77881;BME280;67077;50.298;18.996;2023-06-24T03:14:28;98120.84;;;18.39;74.30
77881;BME280;67077;50.298;18.996;2023-06-24T03:16:55;98120.75;;;18.38;74.60
77881;BME280;67077;50.298;18.996;2023-06-24T03:19:22;98121.13;;;18.36;74.69
77881;BME280;67077;50.298;18.996;2023-06-24T03:21:48;98122.61;;;18.37;74.78
77881;BME280;67077;50.298;18.996;2023-06-24T03:24:15;98128.05;;;18.39;75.23
77881;BME280;67077;50.298;18.996;2023-06-24T03:26:42;98125.82;;;18.39;75.41
77881;BME280;67077;50.298;18.996;2023-06-24T03:29:09;98129.81;;;18.40;75.53
77881;BME280;67077;50.298;18.996;2023-06-24T03:31:36;98131.67;;;18.40;75.52
77881;BME280;67077;50.298;18.996;2023-06-24T03:34:03;98135.99;;;18.39;75.65
77881;BME280;67077;50.298;18.996;2023-06-24T03:36:30;98135.34;;;18.41;75.75
77881;BME280;67077;50.298;18.996;2023-06-24T03:38:57;98135.67;;;18.42;75.85
77881;BME280;67077;50.298;18.996;2023-06-24T03:41:24;98134.64;;;18.44;75.94
77881;BME280;67077;50.298;18.996;2023-06-24T03:43:52;98135.67;;;18.46;76.19
77881;BME280;67077;50.298;18.996;2023-06-24T03:46:19;98139.30;;;18.46;76.37
77881;BME280;67077;50.298;18.996;2023-06-24T03:48:46;98138.52;;;18.46;76.33
77881;BME280;67077;50.298;18.996;2023-06-24T03:51:13;98139.56;;;18.47;76.58
77881;BME280;67077;50.298;18.996;2023-06-24T03:53:39;98145.81;;;18.48;76.82
77881;BME280;67077;50.298;18.996;2023-06-24T03:56:06;98148.88;;;18.49;77.13
77881;BME280;67077;50.298;18.996;2023-06-24T03:58:32;98154.13;;;18.50;77.36
77881;BME280;67077;50.298;18.996;2023-06-24T04:00:59;98156.33;;;18.50;77.63
77881;BME280;67077;50.298;18.996;2023-06-24T04:03:26;98163.83;;;18.50;77.69
77881;BME280;67077;50.298;18.996;2023-06-24T04:05:54;98163.55;;;18.47;77.97
77881;BME280;67077;50.298;18.996;2023-06-24T04:08:21;98167.59;;;18.45;77.99
77881;BME280;67077;50.298;18.996;2023-06-24T04:10:48;98173.29;;;18.44;78.19
77881;BME280;67077;50.298;18.996;2023-06-24T04:13:15;98176.02;;;18.42;78.81
77881;BME280;67077;50.298;18.996;2023-06-24T04:15:44;98179.23;;;18.38;79.36
77881;BME280;67077;50.298;18.996;2023-06-24T04:18:11;98184.24;;;18.36;79.67
77881;BME280;67077;50.298;18.996;2023-06-24T04:20:40;98179.97;;;18.37;79.71
77881;BME280;67077;50.298;18.996;2023-06-24T04:23:07;98184.96;;;18.38;79.89
77881;BME280;67077;50.298;18.996;2023-06-24T04:25:36;98185.25;;;18.38;80.14
77881;BME280;67077;50.298;18.996;2023-06-24T04:28:03;98187.23;;;18.38;80.27
77881;BME280;67077;50.298;18.996;2023-06-24T04:30:31;98188.39;;;18.35;80.38
77881;BME280;67077;50.298;18.996;2023-06-24T04:32:58;98188.48;;;18.30;80.49
77881;BME280;67077;50.298;18.996;2023-06-24T04:35:26;98185.20;;;18.25;80.83
77881;BME280;67077;50.298;18.996;2023-06-24T04:37:52;98189.44;;;18.23;80.78
77881;BME280;67077;50.298;18.996;2023-06-24T04:40:19;98192.30;;;18.23;80.98
77881;BME280;67077;50.298;18.996;2023-06-24T04:42:47;98195.17;;;18.22;81.21
77881;BME280;67077;50.298;18.996;2023-06-24T04:45:14;98195.38;;;18.20;81.29
77881;BME280;67077;50.298;18.996;2023-06-24T04:47:41;98203.15;;;18.19;81.47
77881;BME280;67077;50.298;18.996;2023-06-24T04:50:08;98212.45;;;18.18;81.41
77881;BME280;67077;50.298;18.996;2023-06-24T04:52:39;98215.13;;;18.18;81.59
77881;BME280;67077;50.298;18.996;2023-06-24T04:55:06;98215.45;;;18.17;81.69
77881;BME280;67077;50.298;18.996;2023-06-24T04:57:35;98218.24;;;18.17;81.84
77881;BME280;67077;50.298;18.996;2023-06-24T05:00:03;98225.63;;;18.15;82.11
77881;BME280;67077;50.298;18.996;2023-06-24T05:02:30;98225.48;;;18.08;82.53
77881;BME280;67077;50.298;18.996;2023-06-24T05:04:58;98224.34;;;18.03;82.65
77881;BME280;67077;50.298;18.996;2023-06-24T05:07:25;98227.11;;;18.01;82.84
77881;BME280;67077;50.298;18.996;2023-06-24T05:09:51;98224.74;;;17.96;83.16
77881;BME280;67077;50.298;18.996;2023-06-24T05:12:18;98228.44;;;17.92;83.18
77881;BME280;67077;50.298;18.996;2023-06-24T05:14:50;98230.32;;;17.90;83.47
77881;BME280;67077;50.298;18.996;2023-06-24T05:17:19;98235.25;;;17.90;83.46
77881;BME280;67077;50.298;18.996;2023-06-24T05:19:46;98233.93;;;17.94;83.36
77881;BME280;67077;50.298;18.996;2023-06-24T05:22:12;98236.95;;;17.98;83.33
77881;BME280;67077;50.298;18.996;2023-06-24T05:24:39;98237.95;;;18.02;83.37
77881;BME280;67077;50.298;18.996;2023-06-24T05:27:07;98240.95;;;18.06;83.08
77881;BME280;67077;50.298;18.996;2023-06-24T05:29:34;98244.58;;;18.10;82.55
77881;BME280;67077;50.298;18.996;2023-06-24T05:32:02;98248.58;;;18.10;82.08
77881;BME280;67077;50.298;18.996;2023-06-24T05:34:31;98248.88;;;18.06;81.97
77881;BME280;67077;50.298;18.996;2023-06-24T05:36:58;98254.20;;;18.01;82.04
77881;BME280;67077;50.298;18.996;2023-06-24T05:39:25;98256.68;;;17.96;82.19
77881;BME280;67077;50.298;18.996;2023-06-24T05:41:54;98258.55;;;17.90;82.35
77881;BME280;67077;50.298;18.996;2023-06-24T05:44:21;98261.40;;;17.83;82.42
77881;BME280;67077;50.298;18.996;2023-06-24T05:46:49;98259.11;;;17.77;82.49
77881;BME280;67077;50.298;18.996;2023-06-24T05:49:16;98259.11;;;17.72;82.39
77881;BME280;67077;50.298;18.996;2023-06-24T05:51:44;98267.98;;;17.67;82.51
77881;BME280;67077;50.298;18.996;2023-06-24T05:54:11;98266.02;;;17.58;82.66
77881;BME280;67077;50.298;18.996;2023-06-24T05:56:40;98268.33;;;17.46;82.92
77881;BME280;67077;50.298;18.996;2023-06-24T05:59:07;98269.48;;;17.36;83.11
77881;BME280;67077;50.298;18.996;2023-06-24T06:01:35;98275.48;;;17.30;83.06
77881;BME280;67077;50.298;18.996;2023-06-24T06:04:04;98272.23;;;17.23;83.38
77881;BME280;67077;50.298;18.996;2023-06-24T06:06:32;98277.23;;;17.18;83.58
77881;BME280;67077;50.298;18.996;2023-06-24T06:08:59;98275.34;;;17.12;83.41
77881;BME280;67077;50.298;18.996;2023-06-24T06:11:27;98278.30;;;17.08;83.13
77881;BME280;67077;50.298;18.996;2023-06-24T06:13:54;98277.69;;;17.06;83.04
77881;BME280;67077;50.298;18.996;2023-06-24T06:16:21;98276.80;;;17.05;82.67
77881;BME280;67077;50.298;18.996;2023-06-24T06:18:48;98280.19;;;17.04;82.31
77881;BME280;67077;50.298;18.996;2023-06-24T06:21:15;98283.95;;;17.04;81.94
77881;BME280;67077;50.298;18.996;2023-06-24T06:23:42;98280.82;;;17.08;81.84
77881;BME280;67077;50.298;18.996;2023-06-24T06:26:09;98282.83;;;17.16;81.80
77881;BME280;67077;50.298;18.996;2023-06-24T06:28:36;98289.98;;;17.30;81.55
77881;BME280;67077;50.298;18.996;2023-06-24T06:31:02;98297.16;;;17.45;81.18
77881;BME280;67077;50.298;18.996;2023-06-24T06:33:29;98300.77;;;17.57;80.65
77881;BME280;67077;50.298;18.996;2023-06-24T06:35:56;98305.73;;;17.65;80.04
77881;BME280;67077;50.298;18.996;2023-06-24T06:38:23;98310.20;;;17.68;79.45
77881;BME280;67077;50.298;18.996;2023-06-24T06:40:50;98309.66;;;17.68;78.56
77881;BME280;67077;50.298;18.996;2023-06-24T06:43:17;98312.86;;;17.67;78.09
77881;BME280;67077;50.298;18.996;2023-06-24T06:45:48;98312.25;;;17.67;78.14
77881;BME280;67077;50.298;18.996;2023-06-24T06:48:14;98314.91;;;17.68;78.33
77881;BME280;67077;50.298;18.996;2023-06-24T06:50:41;98321.13;;;17.73;78.29
77881;BME280;67077;50.298;18.996;2023-06-24T06:53:08;98316.79;;;17.81;77.68
77881;BME280;67077;50.298;18.996;2023-06-24T06:55:36;98315.63;;;17.92;77.34
77881;BME280;67077;50.298;18.996;2023-06-24T06:58:07;98320.61;;;18.01;76.35
77881;BME280;67077;50.298;18.996;2023-06-24T07:00:34;98331.64;;;18.06;75.58
77881;BME280;67077;50.298;18.996;2023-06-24T07:03:00;98326.48;;;18.09;75.05
77881;BME280;67077;50.298;18.996;2023-06-24T07:05:28;98325.36;;;18.14;74.83
77881;BME280;67077;50.298;18.996;2023-06-24T07:07:54;98335.48;;;18.13;74.08
77881;BME280;67077;50.298;18.996;2023-06-24T07:10:23;98334.77;;;18.11;74.17
77881;BME280;67077;50.298;18.996;2023-06-24T07:12:50;98344.56;;;18.11;73.81
77881;BME280;67077;50.298;18.996;2023-06-24T07:15:18;98348.78;;;18.12;73.72
77881;BME280;67077;50.298;18.996;2023-06-24T07:17:46;98343.33;;;18.17;73.84
77881;BME280;67077;50.298;18.996;2023-06-24T07:20:13;98347.00;;;18.16;73.61
77881;BME280;67077;50.298;18.996;2023-06-24T07:22:44;98346.77;;;18.15;73.79
77881;BME280;67077;50.298;18.996;2023-06-24T07:25:12;98357.05;;;18.13;73.21
77881;BME280;67077;50.298;18.996;2023-06-24T07:27:41;98356.23;;;18.16;73.19
77881;BME280;67077;50.298;18.996;2023-06-24T07:30:12;98357.63;;;18.18;72.77
77881;BME280;67077;50.298;18.996;2023-06-24T07:32:39;98353.59;;;18.20;72.74
77881;BME280;67077;50.298;18.996;2023-06-24T07:35:07;98353.79;;;18.23;72.90
77881;BME280;67077;50.298;18.996;2023-06-24T07:37:34;98352.30;;;18.29;72.89
77881;BME280;67077;50.298;18.996;2023-06-24T07:40:02;98358.02;;;18.39;72.60
77881;BME280;67077;50.298;18.996;2023-06-24T07:42:34;98360.08;;;18.47;72.04
77881;BME280;67077;50.298;18.996;2023-06-24T07:45:00;98360.04;;;18.48;71.69
77881;BME280;67077;50.298;18.996;2023-06-24T07:47:27;98368.21;;;18.52;71.72
77881;BME280;67077;50.298;18.996;2023-06-24T07:49:53;98376.58;;;18.55;71.46
77881;BME280;67077;50.298;18.996;2023-06-24T07:52:19;98375.89;;;18.60;71.39
77881;BME280;67077;50.298;18.996;2023-06-24T07:54:46;98376.55;;;18.67;70.88
77881;BME280;67077;50.298;18.996;2023-06-24T07:57:13;98375.55;;;18.70;70.59
77881;BME280;67077;50.298;18.996;2023-06-24T07:59:39;98379.16;;;18.69;70.50
77881;BME280;67077;50.298;18.996;2023-06-24T08:02:05;98377.66;;;18.76;70.82
77881;BME280;67077;50.298;18.996;2023-06-24T08:04:32;98377.83;;;18.84;71.19
77881;BME280;67077;50.298;18.996;2023-06-24T08:07:00;98377.31;;;18.93;70.84
77881;BME280;67077;50.298;18.996;2023-06-24T08:09:27;98379.02;;;19.06;70.67
77881;BME280;67077;50.298;18.996;2023-06-24T08:11:53;98388.23;;;19.18;70.75
77881;BME280;67077;50.298;18.996;2023-06-24T08:14:22;98392.91;;;19.21;70.10
77881;BME280;67077;50.298;18.996;2023-06-24T08:16:49;98393.02;;;19.20;70.22
77881;BME280;67077;50.298;18.996;2023-06-24T08:19:15;98401.17;;;19.15;70.25
77881;BME280;67077;50.298;18.996;2023-06-24T08:21:42;98401.54;;;19.14;70.43
77881;BME280;67077;50.298;18.996;2023-06-24T08:24:09;98403.10;;;19.20;70.64
77881;BME280;67077;50.298;18.996;2023-06-24T08:26:36;98402.39;;;19.23;70.36
77881;BME280;67077;50.298;18.996;2023-06-24T08:29:04;98395.33;;;19.22;70.40
77881;BME280;67077;50.298;18.996;2023-06-24T08:31:33;98402.33;;;19.19;70.22
77881;BME280;67077;50.298;18.996;2023-06-24T08:34:00;98409.06;;;19.17;70.13
77881;BME280;67077;50.298;18.996;2023-06-24T08:36:36;98409.79;;;19.18;69.95
77881;BME280;67077;50.298;18.996;2023-06-24T08:39:03;98410.02;;;19.25;70.12
77881;BME280;67077;50.298;18.996;2023-06-24T08:41:29;98411.04;;;19.30;69.71
77881;BME280;67077;50.298;18.996;2023-06-24T08:43:56;98418.56;;;19.30;69.42
77881;BME280;67077;50.298;18.996;2023-06-24T08:46:26;98420.50;;;19.29;69.64
77881;BME280;67077;50.298;18.996;2023-06-24T08:51:44;98433.33;;;19.37;69.87
77881;BME280;67077;50.298;18.996;2023-06-24T08:54:14;98431.14;;;19.39;69.76
77881;BME280;67077;50.298;18.996;2023-06-24T08:56:41;98430.16;;;19.41;69.10
77881;BME280;67077;50.298;18.996;2023-06-24T08:59:08;98428.13;;;19.43;68.87
77881;BME280;67077;50.298;18.996;2023-06-24T09:01:35;98434.53;;;19.47;68.59
77881;BME280;67077;50.298;18.996;2023-06-24T09:04:02;98432.26;;;19.53;68.76
77881;BME280;67077;50.298;18.996;2023-06-24T09:06:31;98437.23;;;19.60;68.29
77881;BME280;67077;50.298;18.996;2023-06-24T09:08:58;98438.58;;;19.67;68.07
77881;BME280;67077;50.298;18.996;2023-06-24T09:11:26;98434.95;;;19.65;67.11
77881;BME280;67077;50.298;18.996;2023-06-24T09:13:57;98440.69;;;19.60;66.86
77881;BME280;67077;50.298;18.996;2023-06-24T09:16:24;98437.10;;;19.55;66.91
77881;BME280;67077;50.298;18.996;2023-06-24T09:18:52;98441.33;;;19.55;67.35
77881;BME280;67077;50.298;18.996;2023-06-24T09:21:26;98437.38;;;19.57;67.58
77881;BME280;67077;50.298;18.996;2023-06-24T09:23:54;98436.16;;;19.65;67.43
77881;BME280;67077;50.298;18.996;2023-06-24T09:26:24;98442.58;;;19.69;66.88
77881;BME280;67077;50.298;18.996;2023-06-24T09:28:51;98445.27;;;19.70;66.77
77881;BME280;67077;50.298;18.996;2023-06-24T09:31:18;98440.99;;;19.73;66.97
77881;BME280;67077;50.298;18.996;2023-06-24T09:33:46;98448.40;;;19.74;67.07
77881;BME280;67077;50.298;18.996;2023-06-24T09:36:14;98447.73;;;19.77;67.44
77881;BME280;67077;50.298;18.996;2023-06-24T09:38:43;98444.98;;;19.81;67.19
77881;BME280;67077;50.298;18.996;2023-06-24T09:41:13;98450.20;;;19.87;67.04
77881;BME280;67077;50.298;18.996;2023-06-24T09:43:42;98452.89;;;19.87;67.50
77881;BME280;67077;50.298;18.996;2023-06-24T09:46:11;98451.88;;;19.74;67.77
77881;BME280;67077;50.298;18.996;2023-06-24T09:48:37;98454.89;;;19.61;68.17
77881;BME280;67077;50.298;18.996;2023-06-24T09:51:06;98460.98;;;19.54;68.65
77881;BME280;67077;50.298;18.996;2023-06-24T09:53:35;98466.66;;;19.48;68.57
77881;BME280;67077;50.298;18.996;2023-06-24T09:56:04;98463.27;;;19.42;68.61
77881;BME280;67077;50.298;18.996;2023-06-24T09:58:32;98467.10;;;19.46;68.83
77881;BME280;67077;50.298;18.996;2023-06-24T10:01:04;98467.58;;;19.45;69.27
77881;BME280;67077;50.298;18.996;2023-06-24T10:03:33;98469.50;;;19.46;69.46
77881;BME280;67077;50.298;18.996;2023-06-24T10:06:03;98473.25;;;19.50;68.88
77881;BME280;67077;50.298;18.996;2023-06-24T10:08:31;98475.89;;;19.51;68.47
77881;BME280;67077;50.298;18.996;2023-06-24T10:10:59;98474.33;;;19.46;68.14
77881;BME280;67077;50.298;18.996;2023-06-24T10:13:28;98473.63;;;19.39;68.62
77881;BME280;67077;50.298;18.996;2023-06-24T10:15:57;98474.11;;;19.33;68.72
77881;BME280;67077;50.298;18.996;2023-06-24T10:20:57;98477.16;;;19.24;68.72
77881;BME280;67077;50.298;18.996;2023-06-24T10:23:40;98479.01;;;19.17;68.67
77881;BME280;67077;50.298;18.996;2023-06-24T10:26:11;98483.40;;;19.14;69.03
77881;BME280;67077;50.298;18.996;2023-06-24T10:36:54;98486.92;;;19.04;69.18
77881;BME280;67077;50.298;18.996;2023-06-24T10:39:42;98481.55;;;19.03;69.19
77881;BME280;67077;50.298;18.996;2023-06-24T10:44:51;98488.52;;;19.04;69.59
77881;BME280;67077;50.298;18.996;2023-06-24T10:47:18;98485.20;;;19.12;69.06
77881;BME280;67077;50.298;18.996;2023-06-24T10:49:45;98493.46;;;19.15;68.27
77881;BME280;67077;50.298;18.996;2023-06-24T10:52:12;98489.92;;;19.13;68.18
77881;BME280;67077;50.298;18.996;2023-06-24T10:54:40;98491.39;;;19.12;68.02
77881;BME280;67077;50.298;18.996;2023-06-24T10:57:08;98493.55;;;19.14;68.25
77881;BME280;67077;50.298;18.996;2023-06-24T10:59:35;98493.88;;;19.14;68.05
77881;BME280;67077;50.298;18.996;2023-06-24T11:02:02;98497.11;;;19.14;68.43
77881;BME280;67077;50.298;18.996;2023-06-24T11:04:28;98506.80;;;19.13;67.96
77881;BME280;67077;50.298;18.996;2023-06-24T11:06:59;98507.95;;;19.02;67.64
77881;BME280;67077;50.298;18.996;2023-06-24T11:09:26;98504.58;;;18.90;68.07
77881;BME280;67077;50.298;18.996;2023-06-24T11:11:53;98508.77;;;18.87;68.32
77881;BME280;67077;50.298;18.996;2023-06-24T11:14:20;98510.08;;;18.85;68.08
77881;BME280;67077;50.298;18.996;2023-06-24T11:16:46;98514.35;;;18.80;67.38
77881;BME280;67077;50.298;18.996;2023-06-24T11:19:13;98511.88;;;18.66;67.57
77881;BME280;67077;50.298;18.996;2023-06-24T11:21:40;98507.19;;;18.52;68.17
77881;BME280;67077;50.298;18.996;2023-06-24T11:24:07;98512.20;;;18.39;68.60
77881;BME280;67077;50.298;18.996;2023-06-24T11:26:33;98510.25;;;18.24;68.89
77881;BME280;67077;50.298;18.996;2023-06-24T11:29:00;98505.39;;;18.14;69.58
77881;BME280;67077;50.298;18.996;2023-06-24T11:31:27;98506.09;;;18.12;69.98
77881;BME280;67077;50.298;18.996;2023-06-24T11:33:54;98511.77;;;18.12;70.10
77881;BME280;67077;50.298;18.996;2023-06-24T11:36:21;98511.63;;;18.08;69.81
77881;BME280;67077;50.298;18.996;2023-06-24T11:38:48;98510.91;;;18.04;69.89
77881;BME280;67077;50.298;18.996;2023-06-24T11:41:15;98510.74;;;17.98;69.85
77881;BME280;67077;50.298;18.996;2023-06-24T11:43:46;98510.61;;;17.90;69.79
77881;BME280;67077;50.298;18.996;2023-06-24T11:49:02;98514.22;;;17.70;69.52
77881;BME280;67077;50.298;18.996;2023-06-24T11:51:29;98513.17;;;17.58;69.73
77881;BME280;67077;50.298;18.996;2023-06-24T11:54:01;98511.77;;;17.55;69.62
77881;BME280;67077;50.298;18.996;2023-06-24T11:56:41;98516.59;;;17.55;69.64
77881;BME280;67077;50.298;18.996;2023-06-24T11:59:16;98514.79;;;17.55;69.47
77881;BME280;67077;50.298;18.996;2023-06-24T12:01:56;98514.02;;;17.60;69.58
77881;BME280;67077;50.298;18.996;2023-06-24T12:04:30;98512.60;;;17.66;69.42
77881;BME280;67077;50.298;18.996;2023-06-24T12:06:57;98513.98;;;17.71;68.98
77881;BME280;67077;50.298;18.996;2023-06-24T12:09:25;98517.58;;;17.75;68.67
77881;BME280;67077;50.298;18.996;2023-06-24T12:11:52;98511.63;;;17.79;68.68
77881;BME280;67077;50.298;18.996;2023-06-24T12:14:19;98515.25;;;17.85;68.60
77881;BME280;67077;50.298;18.996;2023-06-24T12:16:45;98511.63;;;17.89;68.26
77881;BME280;67077;50.298;18.996;2023-06-24T12:19:12;98511.02;;;17.89;67.72
77881;BME280;67077;50.298;18.996;2023-06-24T12:21:39;98512.08;;;17.86;67.88
77881;BME280;67077;50.298;18.996;2023-06-24T12:24:06;98511.52;;;17.86;67.88
77881;BME280;67077;50.298;18.996;2023-06-24T12:26:33;98512.91;;;17.87;67.88
77881;BME280;67077;50.298;18.996;2023-06-24T12:28:59;98508.80;;;17.87;67.96
77881;BME280;67077;50.298;18.996;2023-06-24T12:31:26;98508.88;;;17.89;68.19
77881;BME280;67077;50.298;18.996;2023-06-24T12:33:53;98511.11;;;17.92;68.24
77881;BME280;67077;50.298;18.996;2023-06-24T12:36:21;98515.42;;;17.95;68.18
77881;BME280;67077;50.298;18.996;2023-06-24T12:38:48;98514.44;;;17.94;68.01
77881;BME280;67077;50.298;18.996;2023-06-24T12:41:14;98511.64;;;17.91;68.03
77881;BME280;67077;50.298;18.996;2023-06-24T12:43:41;98512.50;;;17.90;68.10
77881;BME280;67077;50.298;18.996;2023-06-24T12:46:07;98510.73;;;17.87;67.81
77881;BME280;67077;50.298;18.996;2023-06-24T12:48:34;98515.52;;;17.85;67.70
77881;BME280;67077;50.298;18.996;2023-06-24T12:51:00;98517.63;;;17.82;67.88
77881;BME280;67077;50.298;18.996;2023-06-24T12:53:27;98519.20;;;17.80;67.73
77881;BME280;67077;50.298;18.996;2023-06-24T12:55:53;98517.11;;;17.81;67.83
77881;BME280;67077;50.298;18.996;2023-06-24T12:58:30;98514.61;;;17.82;67.86
77881;BME280;67077;50.298;18.996;2023-06-24T13:00:56;98519.17;;;17.85;67.90
77881;BME280;67077;50.298;18.996;2023-06-24T13:03:23;98518.73;;;17.88;67.88
77881;BME280;67077;50.298;18.996;2023-06-24T13:05:49;98522.28;;;17.89;67.98
77881;BME280;67077;50.298;18.996;2023-06-24T13:08:16;98524.75;;;17.89;68.33
77881;BME280;67077;50.298;18.996;2023-06-24T13:10:42;98525.59;;;17.95;68.53
77881;BME280;67077;50.298;18.996;2023-06-24T13:13:09;98525.54;;;18.01;68.05
77881;BME280;67077;50.298;18.996;2023-06-24T13:15:35;98527.58;;;18.02;67.54
77881;BME280;67077;50.298;18.996;2023-06-24T13:18:02;98529.90;;;18.04;67.90
77881;BME280;67077;50.298;18.996;2023-06-24T13:20:29;98530.75;;;18.02;67.58
77881;BME280;67077;50.298;18.996;2023-06-24T13:22:56;98528.40;;;18.02;67.14
77881;BME280;67077;50.298;18.996;2023-06-24T13:25:22;98528.86;;;18.04;67.07